Time;durP1;ratioP1;P1;durP2;ratioP2;P2;SDS_P1;SDS_P2;PMS_P1;PMS_P2;Temp;Humidity;BMP_temperature;BMP_pressure;BME280_temperature;BME280_humidity;BME280_pressure;Samples;Min_cycle;Max_cycle;Signal;HPM_P1;HPM_P2
2021/12/03 00:00:56;;;;;;;7.72;3.42;;;;;;;2.71;88.81;97406.09;5014024;28;20061;-56
2021/12/03 00:03:42;;;;;;;5.70;3.90;;;;;;;2.48;90.85;97404.84;5012771;28;20045;-58
2021/12/03 00:06:28;;;;;;;6.50;3.72;;;;;;;2.59;91.07;97410.25;5012852;28;20105;-56
2021/12/03 00:09:14;;;;;;;7.07;3.47;;;;;;;2.63;94.44;97419.47;5013828;28;20527;-57
2021/12/03 00:12:00;;;;;;;6.78;4.35;;;;;;;2.53;91.67;97439.03;5013908;28;20049;-56
2021/12/03 00:14:46;;;;;;;7.28;3.28;;;;;;;2.55;92.64;97448.38;5013779;28;20061;-56
2021/12/03 00:17:32;;;;;;;6.75;3.90;;;;;;;2.54;95.48;97446.72;5013470;28;20049;-54
2021/12/03 00:20:18;;;;;;;6.43;3.63;;;;;;;2.48;93.23;97456.56;5013667;28;20409;-57
2021/12/03 00:23:05;;;;;;;8.82;4.88;;;;;;;2.55;92.34;97450.97;5013890;28;20056;-57
2021/12/03 00:25:52;;;;;;;12.68;3.65;;;;;;;2.58;92.62;97457.69;5012503;28;20377;-55
2021/12/03 00:28:38;;;;;;;6.43;4.60;;;;;;;2.34;91.47;97450.41;5013585;28;20057;-55
2021/12/03 00:31:24;;;;;;;9.05;5.15;;;;;;;2.24;91.93;97451.84;5013477;28;20405;-57
2021/12/03 00:34:09;;;;;;;7.93;4.63;;;;;;;2.36;91.02;97492.53;5031860;28;20401;-56
2021/12/03 00:36:55;;;;;;;8.43;4.50;;;;;;;2.39;91.61;97494.94;5029243;28;20049;-56
2021/12/03 00:39:41;;;;;;;7.68;4.75;;;;;;;2.40;90.65;97512.09;5032999;28;20057;-56
2021/12/03 00:42:28;;;;;;;7.43;4.07;;;;;;;2.39;88.00;97525.13;5033080;28;20064;-53
2021/12/03 00:45:14;;;;;;;10.95;4.78;;;;;;;2.41;88.85;97537.06;5032804;28;20060;-56
2021/12/03 00:48:00;;;;;;;6.57;3.40;;;;;;;2.48;92.22;97547.88;5023819;28;20060;-58
2021/12/03 00:50:46;;;;;;;7.80;3.85;;;;;;;2.44;88.30;97551.56;5031892;28;20060;-55
2021/12/03 00:53:33;;;;;;;7.72;4.88;;;;;;;2.34;87.90;97557.25;5035872;28;20057;-52
2021/12/03 00:56:19;;;;;;;6.47;3.92;;;;;;;2.44;90.99;97574.84;5032573;28;20052;-56
2021/12/03 00:59:05;;;;;;;8.35;3.83;;;;;;;2.30;86.72;97571.22;5023428;28;20052;-55
2021/12/03 01:01:50;;;;;;;7.93;4.10;;;;;;;2.36;85.91;97582.16;5031481;28;20057;-56
2021/12/03 01:04:36;;;;;;;8.23;3.70;;;;;;;2.34;85.94;97596.00;5023041;28;20052;-56
2021/12/03 01:07:22;;;;;;;7.07;3.92;;;;;;;2.26;85.62;97594.75;5032370;28;20790;-57
2021/12/03 01:10:09;;;;;;;6.28;3.50;;;;;;;2.21;85.27;97605.34;5032454;28;20341;-55
2021/12/03 01:12:55;;;;;;;6.75;3.78;;;;;;;2.22;84.81;97605.25;5031582;28;20052;-51
2021/12/03 01:15:42;;;;;;;8.77;3.90;;;;;;;2.31;84.18;97603.94;5032162;28;20056;-58
2021/12/03 01:18:28;;;;;;;7.63;4.07;;;;;;;2.18;83.80;97608.91;5032160;28;20072;-56
2021/12/03 01:21:15;;;;;;;7.00;3.47;;;;;;;2.19;83.72;97614.91;5032477;28;20432;-55
2021/12/03 01:24:00;;;;;;;9.38;3.88;;;;;;;2.34;83.32;97614.13;5032256;28;20503;-57
2021/12/03 01:26:50;;;;;;;5.65;3.28;;;;;;;2.25;82.89;97614.59;5031200;28;20064;-61
2021/12/03 01:29:35;;;;;;;5.25;3.13;;;;;;;2.16;82.40;97613.31;5036759;28;20056;-57
2021/12/03 01:32:21;;;;;;;6.40;3.50;;;;;;;2.06;82.05;97597.47;5032309;28;20056;-57
2021/12/03 01:35:09;;;;;;;6.63;3.28;;;;;;;2.12;81.88;97623.91;5032094;28;20056;-57
2021/12/03 01:37:55;;;;;;;9.05;3.00;;;;;;;2.14;81.82;97625.50;5030789;28;20449;-54
2021/12/03 01:40:41;;;;;;;5.15;2.90;;;;;;;2.08;80.28;97624.06;5032075;28;20072;-54
2021/12/03 01:43:27;;;;;;;4.55;2.55;;;;;;;2.12;80.78;97639.41;5032230;28;20060;-57
2021/12/03 01:46:18;;;;;;;4.88;2.38;;;;;;;2.24;78.00;97648.28;5036817;28;20056;-55
2021/12/03 01:49:05;;;;;;;4.53;2.60;;;;;;;2.25;82.94;97645.63;5030869;28;20060;-55
2021/12/03 01:51:50;;;;;;;5.78;2.20;;;;;;;2.21;76.40;97659.59;5030760;28;20052;-57
2021/12/03 01:54:36;;;;;;;6.50;2.17;;;;;;;2.25;75.89;97668.88;5031637;28;20064;-52
2021/12/03 01:57:22;;;;;;;6.18;1.58;;;;;;;2.12;75.85;97670.44;5031736;28;20052;-58
2021/12/03 02:00:14;;;;;;;3.83;2.17;;;;;;;2.01;75.58;97665.81;5032105;28;20396;-58
2021/12/03 02:03:00;;;;;;;10.10;1.77;;;;;;;2.11;75.74;97687.66;5031990;28;20052;-57
2021/12/03 02:05:46;;;;;;;3.60;1.60;;;;;;;1.92;75.56;97662.78;5036804;28;20057;-56
2021/12/03 02:08:32;;;;;;;4.93;2.22;;;;;;;2.11;76.32;97685.09;5036461;28;20048;-58
2021/12/03 02:11:19;;;;;;;4.07;1.58;;;;;;;2.02;76.04;97694.16;5031633;28;20116;-58
2021/12/03 02:14:06;;;;;;;4.63;1.60;;;;;;;1.93;76.93;97677.38;5036405;28;20053;-55
2021/12/03 02:16:52;;;;;;;3.80;1.98;;;;;;;2.06;77.13;97698.25;5034206;28;20162;-56
2021/12/03 02:19:38;;;;;;;5.35;1.98;;;;;;;2.01;77.43;97704.56;5035600;28;20069;-57
2021/12/03 02:22:24;;;;;;;3.50;1.67;;;;;;;1.94;77.39;97716.97;5026699;28;20052;-55
2021/12/03 02:25:15;;;;;;;2.10;1.40;;;;;;;1.98;81.43;97715.88;5035549;28;20064;-57
2021/12/03 02:28:01;;;;;;;5.30;1.95;;;;;;;1.92;78.65;97727.38;5035279;28;20491;-53
2021/12/03 02:30:48;;;;;;;5.88;1.70;;;;;;;1.94;77.35;97733.28;5012621;28;20117;-57
2021/12/03 02:33:34;;;;;;;6.50;2.15;;;;;;;1.93;76.55;97734.19;5039893;28;20500;-56
2021/12/03 02:36:21;;;;;;;4.57;1.60;;;;;;;1.93;78.81;97735.94;5035250;28;20052;-52
2021/12/03 02:39:07;;;;;;;4.20;1.73;;;;;;;1.91;76.33;97751.50;5033923;28;20232;-55
2021/12/03 02:41:53;;;;;;;4.78;2.05;;;;;;;1.81;76.58;97752.91;5034199;28;20063;-56
2021/12/03 02:44:39;;;;;;;3.63;1.92;;;;;;;1.81;75.76;97755.47;5026400;28;20049;-56
2021/12/03 02:47:25;;;;;;;4.60;1.48;;;;;;;1.63;77.28;97752.03;5034338;28;20534;-57
2021/12/03 02:50:13;;;;;;;4.65;1.95;;;;;;;1.70;75.30;97763.72;5030610;28;20056;-55
2021/12/03 02:53:00;;;;;;;4.30;1.77;;;;;;;1.86;74.82;97758.66;5034431;28;20057;-57
2021/12/03 02:55:46;;;;;;;4.10;1.80;;;;;;;1.59;75.43;97753.91;5033756;28;20404;-55
2021/12/03 02:58:32;;;;;;;4.28;1.80;;;;;;;1.78;75.16;97768.53;5034736;28;20048;-56
2021/12/03 03:01:17;;;;;;;5.25;1.77;;;;;;;1.67;72.68;97779.38;5034863;28;20056;-57
2021/12/03 03:04:03;;;;;;;4.28;1.40;;;;;;;1.62;70.80;97786.53;5034774;28;20061;-56
2021/12/03 03:06:49;;;;;;;4.63;2.10;;;;;;;1.68;72.39;97791.41;5033953;28;20061;-54
2021/12/03 03:09:35;;;;;;;5.13;1.83;;;;;;;1.77;69.89;97801.28;5039427;28;20048;-54
2021/12/03 03:12:22;;;;;;;5.68;1.65;;;;;;;1.63;71.18;97807.09;5034614;28;20507;-57
2021/12/03 03:15:11;;;;;;;4.00;1.60;;;;;;;1.55;68.96;97824.69;5039228;28;20064;-56
2021/12/03 03:18:11;;;;;;;3.60;1.08;;;;;;;1.57;68.21;97826.28;5033163;28;20061;-55
2021/12/03 03:21:01;;;;;;;3.85;1.45;;;;;;;1.51;67.49;97829.16;5034503;28;20056;-56
2021/12/03 03:23:48;;;;;;;3.30;1.40;;;;;;;1.50;67.08;97844.72;5034255;28;20056;-55
2021/12/03 03:26:36;;;;;;;3.17;1.58;;;;;;;1.50;66.08;97860.22;5033552;28;20060;-56
2021/12/03 03:29:22;;;;;;;3.28;1.50;;;;;;;1.32;65.67;97863.56;5034345;28;20052;-56
2021/12/03 03:32:09;;;;;;;5.07;1.60;;;;;;;1.37;69.24;97875.44;5039089;28;20591;-57
2021/12/03 03:34:54;;;;;;;4.75;1.98;;;;;;;1.17;66.86;97880.59;5039157;28;20056;-53
2021/12/03 03:37:40;;;;;;;4.93;1.80;;;;;;;1.27;71.03;97886.19;5033815;28;20061;-56
2021/12/03 03:40:27;;;;;;;4.47;1.70;;;;;;;1.07;66.94;97889.63;5038990;28;20404;-56
2021/12/03 03:43:14;;;;;;;3.40;2.10;;;;;;;1.02;66.64;97876.06;5033106;28;20113;-58
2021/12/03 03:45:59;;;;;;;5.85;2.13;;;;;;;1.07;67.44;97897.38;5033236;28;20392;-57
2021/12/03 03:48:45;;;;;;;3.88;1.83;;;;;;;1.05;66.86;97891.41;5034300;28;20064;-55
2021/12/03 03:51:32;;;;;;;4.07;1.70;;;;;;;1.05;67.07;97899.16;5038375;28;20155;-56
2021/12/03 03:54:19;;;;;;;5.32;1.80;;;;;;;0.96;66.09;97890.91;5021694;28;20064;-59
2021/12/03 03:57:04;;;;;;;5.82;1.75;;;;;;;0.86;65.96;97897.38;5033516;28;20057;-52
2021/12/03 03:59:50;;;;;;;4.72;1.98;;;;;;;0.92;64.42;97896.28;5032251;28;20060;-56
2021/12/03 04:02:36;;;;;;;3.58;1.50;;;;;;;0.80;66.93;97897.66;5030498;28;20048;-55
2021/12/03 04:05:22;;;;;;;2.60;1.48;;;;;;;0.79;64.93;97895.97;5032691;28;20056;-55
2021/12/03 04:08:08;;;;;;;6.70;1.77;;;;;;;0.94;64.44;97907.38;5034518;28;20115;-57
2021/12/03 04:10:59;;;;;;;4.82;1.52;;;;;;;0.83;65.13;97908.66;5012632;28;20056;-57
2021/12/03 04:13:45;;;;;;;4.70;1.90;;;;;;;0.76;64.21;97920.16;5015621;28;20061;-52
2021/12/03 04:16:31;;;;;;;4.60;1.63;;;;;;;0.79;64.19;97914.84;5045206;28;20049;-53
2021/12/03 04:19:18;;;;;;;2.95;1.50;;;;;;;0.87;65.52;97917.09;5028827;28;20064;-54
2021/12/03 04:22:05;;;;;;;5.53;1.70;;;;;;;0.79;65.07;97920.00;5031318;28;20396;-53
2021/12/03 04:24:55;;;;;;;5.93;1.73;;;;;;;0.79;66.99;97922.59;5031975;28;20056;-54
2021/12/03 04:27:41;;;;;;;4.78;1.85;;;;;;;0.79;67.82;97925.19;5029115;28;20060;-56
2021/12/03 04:30:29;;;;;;;7.68;1.95;;;;;;;0.60;65.36;97923.34;5032182;28;20052;-54
2021/12/03 04:33:16;;;;;;;3.88;1.50;;;;;;;0.65;67.33;97948.97;5032307;28;20053;-56
2021/12/03 04:36:02;;;;;;;3.08;1.23;;;;;;;1.03;72.35;97945.66;5031632;28;20044;-56
2021/12/03 04:38:49;;;;;;;5.47;2.10;;;;;;;1.04;65.30;97955.09;5022562;28;20503;-56
2021/12/03 04:41:35;;;;;;;4.65;1.70;;;;;;;1.02;69.77;97951.75;5023552;28;20052;-55
2021/12/03 04:44:20;;;;;;;8.50;2.08;;;;;;;2.08;71.66;97957.44;5032106;28;20060;-53
2021/12/03 04:47:06;;;;;;;3.58;1.73;;;;;;;1.68;65.12;97949.75;5032559;28;20056;-53
2021/12/03 04:49:52;;;;;;;6.82;2.13;;;;;;;1.18;65.61;97959.66;5032448;28;20054;-52
2021/12/03 04:52:39;;;;;;;5.60;1.67;;;;;;;1.01;67.39;97967.28;5032602;28;20052;-54
2021/12/03 04:55:26;;;;;;;4.70;2.08;;;;;;;0.68;67.25;97963.47;5030347;28;20052;-56
2021/12/03 04:58:13;;;;;;;5.03;1.88;;;;;;;0.98;66.32;97976.81;5031785;28;20047;-56
2021/12/03 05:00:59;;;;;;;4.85;1.50;;;;;;;0.66;67.56;97989.31;5032655;28;20063;-53
2021/12/03 05:03:45;;;;;;;3.78;1.90;;;;;;;0.56;68.16;97990.56;5031999;28;20417;-51
2021/12/03 05:06:51;;;;;;;4.65;1.95;;;;;;;0.69;70.46;98012.38;5032567;28;20045;-52
2021/12/03 05:09:37;;;;;;;4.95;2.03;;;;;;;0.45;68.12;98009.91;5032079;28;20159;-53
2021/12/03 05:12:23;;;;;;;3.63;1.90;;;;;;;0.30;69.22;98041.41;5031276;28;20049;-50
2021/12/03 05:15:09;;;;;;;4.43;2.00;;;;;;;0.17;69.84;98034.13;5032691;28;20068;-53
2021/12/03 05:17:55;;;;;;;3.97;1.98;;;;;;;0.18;69.61;98040.97;5032190;28;20057;-51
2021/12/03 05:20:42;;;;;;;5.18;1.88;;;;;;;0.34;70.50;98041.22;5032094;28;20048;-52
2021/12/03 05:23:30;;;;;;;4.32;2.30;;;;;;;0.34;70.19;98056.69;5032179;28;20052;-56
2021/12/03 05:26:15;;;;;;;4.63;1.65;;;;;;;0.17;71.14;98062.47;5031499;28;20439;-54
2021/12/03 05:29:02;;;;;;;6.97;2.13;;;;;;;0.06;70.16;98068.03;5037201;28;20064;-57
2021/12/03 05:31:49;;;;;;;3.20;1.40;;;;;;;0.07;73.96;98080.00;5032336;28;20073;-51
2021/12/03 05:34:36;;;;;;;5.63;1.90;;;;;;;0.08;72.09;98089.41;5017229;28;20507;-54
2021/12/03 05:37:22;;;;;;;4.25;1.77;;;;;;;-0.04;70.92;98093.28;5036855;28;20384;-54
2021/12/03 05:40:09;;;;;;;3.60;1.58;;;;;;;-0.10;71.00;98082.38;5031070;28;20052;-54
2021/12/03 05:42:55;;;;;;;5.10;1.55;;;;;;;-0.13;72.86;98102.19;5030948;28;20056;-54
2021/12/03 05:45:41;;;;;;;5.75;1.70;;;;;;;-0.11;71.68;98098.72;5032213;28;20052;-54
2021/12/03 05:48:27;;;;;;;3.90;1.75;;;;;;;-0.16;73.28;98112.59;5031447;28;20060;-54
2021/12/03 05:51:13;;;;;;;4.57;1.77;;;;;;;-0.26;72.62;98119.78;5032048;28;20056;-53
2021/12/03 05:53:59;;;;;;;6.35;1.80;;;;;;;-0.23;72.69;98124.00;5035919;28;20392;-55
2021/12/03 05:56:44;;;;;;;5.80;2.00;;;;;;;-0.33;73.08;98131.22;5022842;28;20057;-53
2021/12/03 05:59:31;;;;;;;4.57;2.20;;;;;;;-0.43;74.08;98137.56;5030723;28;20056;-51
2021/12/03 06:02:17;;;;;;;4.40;1.77;;;;;;;-0.36;73.91;98136.47;5031768;28;20052;-50
2021/12/03 06:05:03;;;;;;;4.63;1.60;;;;;;;-0.44;74.36;98156.47;5036538;28;20056;-52
2021/12/03 06:07:49;;;;;;;3.88;1.92;;;;;;;-0.51;74.19;98156.66;5031560;28;20068;-54
2021/12/03 06:10:35;;;;;;;5.00;1.90;;;;;;;-0.56;74.23;98162.84;5031617;28;20064;-53
2021/12/03 06:13:21;;;;;;;4.60;1.85;;;;;;;-0.65;74.71;98169.13;5031801;28;20060;-53
2021/12/03 06:16:08;;;;;;;3.78;1.77;;;;;;;-0.54;74.38;98169.63;5031679;28;20056;-54
2021/12/03 06:18:54;;;;;;;5.00;1.92;;;;;;;-0.60;75.14;98174.16;5031473;28;20049;-54
2021/12/03 06:21:40;;;;;;;4.40;1.50;;;;;;;-0.58;74.97;98183.50;5031337;28;20448;-54
2021/12/03 06:24:26;;;;;;;3.28;1.60;;;;;;;-0.61;74.59;98183.59;5031388;28;20060;-56
2021/12/03 06:27:11;;;;;;;6.72;2.28;;;;;;;-0.62;75.20;98195.59;5031278;28;20064;-51
2021/12/03 06:29:58;;;;;;;3.85;1.50;;;;;;;-0.64;75.13;98205.09;5031276;28;20064;-55
2021/12/03 06:32:44;;;;;;;5.85;1.55;;;;;;;-0.48;74.45;98212.34;5031297;28;20052;-50
2021/12/03 06:35:30;;;;;;;3.60;1.60;;;;;;;-0.62;75.22;98218.78;5031526;28;20056;-53
2021/12/03 06:38:17;;;;;;;6.97;2.20;;;;;;;-0.57;75.23;98217.78;5022418;28;20049;-52
2021/12/03 06:41:03;;;;;;;4.40;1.52;;;;;;;-0.39;74.79;98229.22;5036258;28;20053;-54
2021/12/03 06:43:51;;;;;;;8.50;1.73;;;;;;;-0.46;74.87;98233.75;5029761;28;20053;-52
2021/12/03 06:46:37;;;;;;;5.90;1.73;;;;;;;-0.32;75.37;98237.59;5030325;28;20060;-52
2021/12/03 06:49:23;;;;;;;4.05;1.38;;;;;;;-0.04;74.58;98244.41;5029438;28;20060;-55
2021/12/03 06:52:13;;;;;;;6.28;1.95;;;;;;;-0.19;74.59;98245.75;5036660;28;20052;-51
2021/12/03 06:55:02;;;;;;;2.85;1.27;;;;;;;-0.20;73.83;98241.50;5030883;28;20056;-54
2021/12/03 06:57:48;;;;;;;3.28;1.20;;;;;;;0.03;73.18;98250.19;5034722;28;20052;-56
2021/12/03 07:00:34;;;;;;;4.20;1.73;;;;;;;0.69;71.28;98246.19;5029966;28;20499;-55
2021/12/03 07:03:19;;;;;;;2.75;1.15;;;;;;;0.68;70.37;98250.53;5033458;28;20061;-59
2021/12/03 07:06:05;;;;;;;3.42;1.50;;;;;;;0.76;69.91;98247.66;5034667;28;20053;-57
2021/12/03 07:08:51;;;;;;;3.88;1.50;;;;;;;1.39;89.52;98256.50;5039597;28;20056;-64
2021/12/03 07:11:37;;;;;;;2.08;1.33;;;;;;;3.99;81.08;98264.19;5034688;28;20060;-66
2021/12/03 07:14:23;;;;;;;4.38;1.05;;;;;;;6.21;92.75;98259.41;5034655;28;20056;-66
2021/12/03 07:17:09;;;;;;;7.35;1.65;;;;;;;5.86;75.71;98260.50;5061297;28;20064;-68
2021/12/03 07:19:57;;;;;;;4.50;1.30;;;;;;;6.00;81.26;98270.97;5033160;28;20048;-69
2021/12/03 07:22:42;;;;;;;3.88;0.98;;;;;;;5.55;68.99;98276.03;5033812;28;20496;-66
2021/12/03 07:25:28;;;;;;;6.00;1.73;;;;;;;5.27;76.89;98287.97;5038035;28;20048;-67
2021/12/03 07:28:16;;;;;;;5.30;1.63;;;;;;;4.35;65.62;98292.72;5042953;28;20056;-65
2021/12/03 07:31:02;;;;;;;3.47;1.13;;;;;;;5.48;86.77;98305.91;5036173;28;20052;-65
2021/12/03 07:33:48;;;;;;;6.18;1.67;;;;;;;5.40;71.69;98291.56;5040174;28;20052;-63
2021/12/03 07:36:34;;;;;;;3.53;1.27;;;;;;;6.27;61.58;98317.13;5034595;28;20052;-66
2021/12/03 07:39:20;;;;;;;2.42;1.00;;;;;;;6.69;72.42;98323.44;5031628;28;20044;-61
2021/12/03 07:42:07;;;;;;;2.65;1.25;;;;;;;7.50;66.30;98323.75;5032932;28;20057;-66
2021/12/03 07:44:52;;;;;;;4.38;1.85;;;;;;;7.30;66.77;98330.19;5033617;28;20113;-65
2021/12/03 07:47:39;;;;;;;2.50;1.02;;;;;;;6.20;80.73;98341.81;5032371;28;20057;-65
2021/12/03 07:50:24;;;;;;;2.10;0.95;;;;;;;6.84;66.07;98352.94;5032877;28;20060;-63
2021/12/03 07:53:17;;;;;;;4.13;1.60;;;;;;;4.34;63.94;98340.31;5024350;28;20052;-63
2021/12/03 07:56:03;;;;;;;2.80;1.25;;;;;;;4.71;71.58;98358.38;5033907;28;20053;-63
2021/12/03 07:58:49;;;;;;;5.60;1.65;;;;;;;4.97;59.41;98353.59;5033214;28;20503;-62
2021/12/03 08:01:34;;;;;;;3.03;1.30;;;;;;;5.52;62.56;98354.19;5032364;28;20048;-63
2021/12/03 08:04:20;;;;;;;2.88;1.23;;;;;;;5.15;73.25;98357.84;5031031;28;20061;-62
2021/12/03 08:07:08;;;;;;;5.45;1.80;;;;;;;5.46;68.70;98365.75;5033330;28;20068;-63
2021/12/03 08:09:53;;;;;;;3.30;0.93;;;;;;;5.25;63.75;98367.75;5037246;28;20511;-62
2021/12/03 08:12:40;;;;;;;4.63;1.35;;;;;;;6.35;66.77;98375.69;5030535;28;20487;-64
2021/12/03 08:15:26;;;;;;;3.28;1.63;;;;;;;6.25;58.70;98385.78;5033082;28;20044;-63
2021/12/03 08:18:12;;;;;;;6.22;1.40;;;;;;;6.22;73.35;98397.19;5032638;28;20040;-66
2021/12/03 08:20:58;;;;;;;5.82;1.55;;;;;;;6.20;66.28;98391.22;5031349;28;20052;-66
2021/12/03 08:23:44;;;;;;;3.67;1.65;;;;;;;7.89;58.09;98391.72;5030168;28;20480;-65
2021/12/03 08:26:30;;;;;;;3.17;1.60;;;;;;;7.48;55.53;98399.44;5046315;28;20052;-64
2021/12/03 08:29:16;;;;;;;5.10;1.90;;;;;;;7.38;56.79;98398.31;5033023;28;20048;-66
2021/12/03 08:32:03;;;;;;;3.70;1.23;;;;;;;6.20;68.78;98400.81;5032207;28;20056;-65
2021/12/03 08:34:48;;;;;;;2.88;1.10;;;;;;;7.01;64.79;98410.06;5057031;28;20056;-64
2021/12/03 08:37:35;;;;;;;4.47;1.90;;;;;;;6.48;53.31;98410.47;5031589;28;20060;-65
2021/12/03 08:40:22;;;;;;;4.63;1.30;;;;;;;5.36;66.41;98411.31;5031594;28;20049;-67
2021/12/03 08:43:07;;;;;;;3.63;1.65;;;;;;;6.09;53.99;98417.03;5032461;28;20060;-66
2021/12/03 08:45:55;;;;;;;5.00;1.88;;;;;;;3.55;56.89;98428.66;5025207;28;20392;-61
2021/12/03 08:48:45;;;;;;;6.68;2.03;;;;;;;3.19;58.91;98425.88;5030342;28;20056;-61
2021/12/03 08:51:47;;;;;;;5.35;2.40;;;;;;;3.44;58.77;98429.13;5032568;28;20053;-61
2021/12/03 08:57:37;;;;;;;8.70;1.95;;;;;;;3.73;58.93;98442.53;5030691;28;19924;-60
2021/12/03 09:00:23;;;;;;;3.53;1.90;;;;;;;5.00;54.77;98436.53;5031829;28;20064;-61
2021/12/03 09:03:09;;;;;;;3.47;1.75;;;;;;;4.32;55.91;98441.56;5031171;28;20036;-61
2021/12/03 09:05:55;;;;;;;8.80;2.08;;;;;;;4.76;54.81;98444.63;5035016;28;20437;-62
2021/12/03 09:08:41;;;;;;;6.45;2.15;;;;;;;4.49;55.84;98445.91;5031280;28;20056;-59
2021/12/03 09:11:29;;;;;;;6.90;1.85;;;;;;;4.48;57.12;98453.78;5040010;28;20056;-63
2021/12/03 09:14:21;;;;;;;3.97;1.67;;;;;;;5.02;55.63;98463.25;5034668;28;20053;-63
2021/12/03 09:20:58;;;;;;;3.85;1.80;;;;;;;5.79;52.79;98452.41;5036585;28;20400;-66
2021/12/03 09:26:13;;;;;;;3.95;2.30;;;;;;;7.45;49.86;98469.16;5028734;28;20049;-61
2021/12/03 09:29:10;;;;;;;4.90;1.42;;;;;;;6.68;49.22;98463.16;5035940;28;20052;-60
2021/12/03 09:31:57;;;;;;;3.67;1.50;;;;;;;6.18;51.32;98468.53;5031003;28;20404;-61
2021/12/03 09:34:43;;;;;;;6.72;1.92;;;;;;;5.55;52.35;98466.59;5031154;28;20053;-61
2021/12/03 09:37:29;;;;;;;3.40;1.63;;;;;;;4.75;53.55;98474.13;5031127;28;20369;-62
2021/12/03 09:40:21;;;;;;;4.43;2.22;;;;;;;5.22;52.49;98462.25;5030464;28;20048;-61
2021/12/03 09:43:07;;;;;;;4.60;1.80;;;;;;;5.81;52.24;98466.13;5030440;28;20065;-63
2021/12/03 09:46:03;;;;;;;4.90;1.63;;;;;;;5.20;52.67;98465.84;5022341;28;20080;-59
2021/12/03 09:49:07;;;;;;;2.83;1.50;;;;;;;5.84;52.41;98472.94;5031490;28;20057;-58
2021/12/03 09:52:03;;;;;;;5.47;1.52;;;;;;;5.99;52.03;98469.50;5030552;28;20049;-59
2021/12/03 09:54:58;;;;;;;7.18;2.15;;;;;;;6.85;49.54;98471.78;5031119;28;20060;-58
2021/12/03 09:57:52;;;;;;;3.85;1.73;;;;;;;6.80;48.54;98455.56;5031165;28;20052;-56
2021/12/03 10:00:59;;;;;;;5.22;1.48;;;;;;;6.25;50.13;98474.25;5029984;28;20048;-55
2021/12/03 10:13:09;;;;;;;2.55;1.30;;;;;;;5.96;49.27;98468.81;5031277;28;20112;-57
2021/12/03 10:18:47;;;;;;;4.75;1.80;;;;;;;4.16;53.13;98469.97;5031373;28;20505;-52
2021/12/03 10:37:44;;;;;;;6.05;1.65;;;;;;;5.24;51.49;98455.22;5017473;28;20057;-57
2021/12/03 10:41:08;;;;;;;5.03;2.15;;;;;;;5.70;51.18;98477.09;5024518;28;20188;-54
2021/12/03 10:43:57;;;;;;;4.90;1.90;;;;;;;6.37;49.54;98475.31;5038093;28;20060;-55
2021/12/03 10:52:54;;;;;;;2.10;1.30;;;;;;;6.45;49.27;98454.91;5032637;28;20164;-55
2021/12/03 10:59:09;;;;;;;4.75;2.03;;;;;;;6.14;48.93;98462.66;5032049;28;20507;-54
2021/12/03 12:16:37;;;;;;;2.58;1.60;;;;;;;8.43;47.16;98459.69;5013831;28;20382;-58
2021/12/03 13:05:02;;;;;;;3.97;1.80;;;;;;;6.16;56.01;98486.84;5031439;28;20049;-59
2021/12/03 13:28:43;;;;;;;3.80;1.42;;;;;;;5.26;60.30;98501.88;5032016;28;20044;-58
2021/12/03 13:35:33;;;;;;;3.35;1.40;;;;;;;4.18;58.34;98525.16;5036535;28;20056;-58
2021/12/03 13:59:40;;;;;;;4.28;1.02;;;;;;;4.85;57.61;98552.38;5031930;28;20061;-59
2021/12/03 14:02:51;;;;;;;1.27;0.90;;;;;;;5.92;54.24;98546.19;5030322;28;20060;-59
2021/12/03 14:16:15;;;;;;;1.90;0.80;;;;;;;4.62;58.77;98564.69;5035817;28;20116;-59
2021/12/03 14:29:45;;;;;;;2.28;0.90;;;;;;;4.95;60.10;98563.97;5040129;28;20064;-61
2021/12/03 14:39:49;;;;;;;1.70;1.00;;;;;;;3.49;67.10;98576.56;5040019;28;20171;-59
2021/12/03 14:42:54;;;;;;;3.13;1.25;;;;;;;3.51;64.97;98578.19;5033951;28;20052;-59
2021/12/03 14:49:06;;;;;;;2.50;1.40;;;;;;;3.50;63.90;98592.06;5034775;28;20057;-57
2021/12/03 14:54:59;;;;;;;3.53;1.50;;;;;;;3.37;69.14;98596.06;5034956;28;20056;-58
2021/12/03 14:57:51;;;;;;;3.88;1.55;;;;;;;4.02;65.42;98608.84;5034450;28;20057;-57
2021/12/03 15:03:45;;;;;;;2.60;1.48;;;;;;;3.52;73.92;98600.59;5034628;28;20060;-57
2021/12/03 15:06:35;;;;;;;2.95;1.52;;;;;;;3.42;71.67;98594.97;5034901;28;20068;-58
2021/12/03 15:09:32;;;;;;;5.30;2.15;;;;;;;2.48;70.23;98604.72;5026167;28;20064;-55
2021/12/03 15:15:52;;;;;;;4.28;2.53;;;;;;;2.94;71.01;98604.66;5034785;28;20060;-60
2021/12/03 15:27:34;;;;;;;4.15;2.05;;;;;;;2.59;75.65;98603.38;5034123;28;20056;-60
2021/12/03 15:36:30;;;;;;;4.30;2.25;;;;;;;3.56;74.95;98629.78;5034075;28;20072;-58
2021/12/03 16:04:33;;;;;;;3.40;2.05;;;;;;;2.37;72.53;98629.22;5031820;28;20044;-59
2021/12/03 16:52:14;;;;;;;6.53;2.42;;;;;;;2.09;83.16;98667.25;5033727;28;20511;-60
2021/12/03 16:55:02;;;;;;;5.00;2.13;;;;;;;2.04;82.76;98668.34;5030718;28;20056;-60
2021/12/03 16:57:51;;;;;;;4.35;2.53;;;;;;;1.79;78.17;98685.53;5020730;28;20507;-59
2021/12/03 17:00:41;;;;;;;3.95;1.90;;;;;;;1.75;82.16;98671.00;5031182;28;20056;-60
2021/12/03 17:03:35;;;;;;;4.15;2.40;;;;;;;1.82;81.00;98681.97;5030625;28;20412;-59
2021/12/03 17:48:32;;;;;;;5.45;2.50;;;;;;;0.46;78.87;98699.84;5031105;28;20049;-54
2021/12/03 17:51:47;;;;;;;4.10;2.33;;;;;;;0.35;77.39;98707.91;5043384;28;20409;-56
2021/12/03 17:54:32;;;;;;;4.13;2.47;;;;;;;0.32;77.92;98712.28;5030893;28;20060;-57
2021/12/03 18:00:16;;;;;;;4.20;2.20;;;;;;;0.49;78.81;98714.38;5028105;28;20060;-58
2021/12/03 18:03:08;;;;;;;4.47;2.67;;;;;;;0.44;78.05;98695.66;5030836;28;20507;-57
2021/12/03 18:06:28;;;;;;;5.82;2.42;;;;;;;0.42;76.90;98702.56;5034661;28;20409;-52
2021/12/03 18:12:19;;;;;;;4.97;2.30;;;;;;;0.46;78.68;98715.31;5036719;28;20074;-57
2021/12/03 18:18:15;;;;;;;3.38;2.38;;;;;;;0.17;78.38;98718.69;5013687;28;20053;-54
2021/12/03 18:57:28;;;;;;;4.20;2.35;;;;;;;0.20;76.61;98690.25;5007046;28;20048;-56
2021/12/03 19:00:18;;;;;;;4.95;2.60;;;;;;;0.23;77.70;98703.06;5018586;28;20428;-55
2021/12/03 19:03:16;;;;;;;5.30;3.28;;;;;;;0.27;76.97;98715.00;5009756;28;20052;-58
2021/12/03 19:08:54;;;;;;;5.60;2.70;;;;;;;0.06;77.04;98714.69;5023408;28;20566;-59
2021/12/03 19:12:03;;;;;;;4.90;2.78;;;;;;;0.09;77.03;98711.16;5016271;28;20048;-59
2021/12/03 19:14:57;;;;;;;4.93;2.78;;;;;;;0.24;77.24;98712.50;5030729;28;20184;-57
2021/12/03 19:17:46;;;;;;;4.88;2.67;;;;;;;0.21;77.13;98715.16;5030627;28;20136;-58
2021/12/03 19:20:36;;;;;;;5.80;2.92;;;;;;;0.23;76.04;98711.66;5030744;28;20060;-54
2021/12/03 19:23:22;;;;;;;5.13;2.55;;;;;;;0.35;76.32;98709.63;5030638;28;20539;-57
2021/12/03 19:26:07;;;;;;;4.68;2.60;;;;;;;-0.01;76.57;98700.25;5030111;28;20052;-57
2021/12/03 19:28:54;;;;;;;5.15;2.85;;;;;;;0.04;77.24;98716.44;5031344;28;20068;-52
2021/12/03 19:31:41;;;;;;;6.80;3.60;;;;;;;0.14;76.63;98714.47;5036459;28;20060;-57
2021/12/03 19:34:27;;;;;;;4.32;2.45;;;;;;;0.08;76.65;98712.06;5057699;28;20064;-55
2021/12/03 19:37:13;;;;;;;6.93;3.10;;;;;;;0.08;76.24;98707.75;5029498;28;20049;-58
2021/12/03 19:40:04;;;;;;;7.10;3.47;;;;;;;-0.02;77.05;98709.72;5030420;28;20060;-57
2021/12/03 19:43:02;;;;;;;7.05;3.10;;;;;;;-0.12;77.07;98710.84;5027673;28;20048;-55
2021/12/03 19:45:55;;;;;;;7.80;3.53;;;;;;;-0.13;76.28;98710.00;5032076;28;20060;-56
2021/12/03 19:48:48;;;;;;;8.07;3.13;;;;;;;0.09;76.56;98704.28;5039644;28;20049;-53
2021/12/03 19:51:41;;;;;;;4.53;2.65;;;;;;;0.14;75.94;98711.91;5037078;28;20053;-56
2021/12/03 19:54:27;;;;;;;7.05;2.85;;;;;;;0.17;75.73;98714.41;5030154;28;20060;-54
2021/12/03 19:57:14;;;;;;;6.57;2.83;;;;;;;0.04;76.17;98715.59;5030867;28;20052;-56
2021/12/03 20:00:00;;;;;;;6.35;3.78;;;;;;;-0.03;78.54;98692.56;5022613;28;20462;-44
2021/12/03 20:02:47;;;;;;;5.88;3.05;;;;;;;0.39;80.97;98708.66;5030995;28;20048;-49
2021/12/03 20:05:33;;;;;;;5.07;2.28;;;;;;;1.14;82.13;98713.41;5049073;28;20076;-53
2021/12/03 20:08:21;;;;;;;5.68;3.22;;;;;;;1.41;78.60;98703.09;5031336;28;20068;-51
2021/12/03 20:11:09;;;;;;;3.38;1.20;;;;;;;1.42;84.35;98707.38;5029050;28;20407;-54
2021/12/03 20:13:59;;;;;;;7.18;2.88;;;;;;;1.42;76.92;98704.81;5035092;28;20491;-51
2021/12/03 20:19:39;;;;;;;5.53;2.10;;;;;;;1.03;79.05;98714.56;5036006;28;20049;-50
2021/12/03 20:22:37;;;;;;;4.18;2.75;;;;;;;0.96;74.49;98710.50;5029256;28;20052;-52
2021/12/03 20:26:05;;;;;;;5.13;2.28;;;;;;;1.13;80.71;98711.72;5057204;28;20393;-53
2021/12/03 20:28:58;;;;;;;4.72;2.60;;;;;;;0.75;76.35;98696.50;5055485;28;20056;-53
2021/12/03 20:31:47;;;;;;;6.13;3.20;;;;;;;0.67;75.62;98697.56;5026709;28;20052;-56
2021/12/03 20:34:59;;;;;;;5.25;1.77;;;;;;;1.20;87.36;98679.66;5032801;28;20083;-56